Search for airport 
image banner adimage banner ad
image banner ad

VAJM - Jamnagar

Located in Jamnagar, India

ICAO - VAJM, IATA - JGA

Data provided by Airmate  

General information

Coordinates: N22°27'60" E70°0'0"
Elevation is 49 feet MSL.
 
Rated:
View ratings: [VIEW]


View others Airports in Gujarat

Operational data

Open for public use
Current time UTC:
Current local time:
Weather
TAF: TAF VAJM 211400Z 2115/2124 12005KT 6000 SCT020 BKN080 TEMPO 2115/2119 4000 TSRA SCT015 SCT025 FEW030CB BKN080
View NOTAMs / SUP AIP / TFR affecting this airport [VIEW]
Communications frequencies: [VIEW]

Runways:

RWY identifierQFULength (ft)Width (ft)SurfaceLDA (ft)
0661°8248148CON
248248148
128259148
308259148

Airport contact information

Address: Jamnagar India

Satellite view of VAJM